Time;durP1;ratioP1;P1;durP2;ratioP2;P2;SDS_P1;SDS_P2;PMS_P1;PMS_P2;Temp;Humidity;BMP_temperature;BMP_pressure;BME280_temperature;BME280_humidity;BME280_pressure;Samples;Min_cycle;Max_cycle;Signal;HPM_P1;HPM_P2
2022/05/28 00:02:04;;;;;;;8.88;2.15;;;;;;;11.72;86.46;102042.81;4992774;28;20070;-59
2022/05/28 00:04:32;;;;;;;11.63;2.05;;;;;;;11.59;86.38;102039.97;4992105;28;20092;-60
2022/05/28 00:07:00;;;;;;;9.20;2.25;;;;;;;11.47;87.44;102032.66;4990610;28;20042;-59
2022/05/28 00:09:28;;;;;;;13.95;2.55;;;;;;;11.55;87.04;102027.88;4991338;28;20050;-60
2022/05/28 00:11:56;;;;;;;6.43;1.70;;;;;;;11.50;87.00;102029.88;4989444;28;20089;-60
2022/05/28 00:14:25;;;;;;;8.90;2.10;;;;;;;11.48;88.38;102029.13;4992479;28;20046;-59
2022/05/28 00:16:54;;;;;;;10.55;2.85;;;;;;;11.38;88.35;102023.44;4988138;28;21023;-58
2022/05/28 00:19:22;;;;;;;9.07;1.92;;;;;;;11.29;88.76;102034.44;4982326;28;20524;-60
2022/05/28 00:21:50;;;;;;;11.73;2.22;;;;;;;11.27;88.74;102031.00;4990370;28;20133;-59
2022/05/28 00:24:18;;;;;;;10.88;2.30;;;;;;;11.33;89.19;102026.31;4988839;28;20043;-54
2022/05/28 00:26:46;;;;;;;12.75;2.45;;;;;;;11.31;88.72;102028.16;4986362;28;20050;-55
2022/05/28 00:29:14;;;;;;;8.38;2.40;;;;;;;11.30;89.55;102021.19;4988132;28;20462;-55
2022/05/28 00:31:44;;;;;;;11.93;2.63;;;;;;;11.30;88.96;102028.22;4984400;28;20058;-59
2022/05/28 00:34:12;;;;;;;9.85;2.40;;;;;;;11.20;89.66;102025.19;4987251;28;20057;-59
2022/05/28 00:36:40;;;;;;;15.40;2.50;;;;;;;11.23;90.70;102021.56;4989509;28;20050;-59
2022/05/28 00:39:08;;;;;;;14.55;2.95;;;;;;;11.15;91.00;102027.19;4991586;28;20517;-59
2022/05/28 00:41:36;;;;;;;9.70;2.40;;;;;;;11.11;91.20;102020.38;4992091;28;20045;-59
2022/05/28 00:44:05;;;;;;;12.65;2.65;;;;;;;11.08;92.00;102028.44;4991670;28;20073;-59
2022/05/28 00:46:33;;;;;;;13.65;2.70;;;;;;;11.09;92.27;102019.59;4993216;28;20096;-59
2022/05/28 00:49:07;;;;;;;11.70;2.85;;;;;;;11.03;92.50;102012.00;4992307;28;20544;-59
2022/05/28 00:51:41;;;;;;;11.32;2.60;;;;;;;11.04;92.12;102024.25;4988334;28;20038;-55
2022/05/28 00:54:11;;;;;;;12.75;2.33;;;;;;;11.03;92.92;102022.53;4988028;28;20208;-59
2022/05/28 00:56:39;;;;;;;8.70;2.38;;;;;;;11.05;92.87;102004.91;4992121;28;20092;-59
2022/05/28 00:59:09;;;;;;;14.45;12.65;;;;;;;10.98;92.61;102010.44;4990904;28;20505;-59
2022/05/28 01:01:41;;;;;;;9.02;2.20;;;;;;;10.93;93.74;102011.59;4992255;28;20422;-59
2022/05/28 01:04:18;;;;;;;13.60;2.95;;;;;;;10.95;93.23;102010.59;4991584;28;20772;-59
2022/05/28 01:06:57;;;;;;;11.73;3.08;;;;;;;10.92;93.36;102005.50;4991605;28;20046;-59
2022/05/28 01:09:31;;;;;;;13.27;3.35;;;;;;;10.86;94.53;102011.03;4990072;28;20561;-59
2022/05/28 01:12:07;;;;;;;12.65;2.50;;;;;;;10.83;94.30;102006.75;4986998;28;20041;-59
2022/05/28 01:14:40;;;;;;;11.07;2.45;;;;;;;10.84;93.40;101999.75;4992564;28;20178;-60
2022/05/28 01:17:14;;;;;;;12.05;2.78;;;;;;;10.81;94.88;101999.88;4992515;28;20046;-59
2022/05/28 01:19:57;;;;;;;11.57;2.60;;;;;;;10.79;94.59;101999.94;4991569;28;20075;-59
2022/05/28 01:22:45;;;;;;;13.60;2.72;;;;;;;10.79;95.23;101999.94;4992104;28;20501;-59
2022/05/28 01:25:27;;;;;;;9.13;2.30;;;;;;;10.67;96.34;101989.16;4990063;28;20112;-59
2022/05/28 01:28:02;;;;;;;10.38;2.75;;;;;;;10.65;96.29;101990.06;4979223;28;20046;-58
2022/05/28 01:30:31;;;;;;;8.90;2.78;;;;;;;10.64;96.20;101991.00;4991985;28;20043;-58
2022/05/28 01:33:02;;;;;;;8.30;2.55;;;;;;;10.68;95.93;101990.88;4992050;28;20379;-59
2022/05/28 01:35:32;;;;;;;10.05;2.90;;;;;;;10.62;95.90;101986.72;4991791;28;20058;-59
2022/05/28 01:38:01;;;;;;;12.25;3.17;;;;;;;10.61;97.91;101980.63;4992212;28;20050;-59
2022/05/28 01:40:30;;;;;;;9.90;2.60;;;;;;;10.56;97.64;101982.63;4994671;28;20066;-59
2022/05/28 01:43:04;;;;;;;12.15;2.72;;;;;;;10.55;98.01;101982.69;4993667;28;20062;-60
2022/05/28 01:45:33;;;;;;;13.32;3.28;;;;;;;10.51;98.44;101976.72;4994741;28;20041;-59
2022/05/28 01:48:05;;;;;;;11.35;2.80;;;;;;;10.50;98.18;101988.19;4995568;28;20433;-59
2022/05/28 01:50:37;;;;;;;13.20;3.05;;;;;;;10.55;98.74;101982.69;4995000;28;20528;-59
2022/05/28 01:53:09;;;;;;;11.48;2.80;;;;;;;10.41;99.86;101980.72;4995132;28;20053;-59
2022/05/28 01:55:46;;;;;;;12.07;3.03;;;;;;;10.37;100.00;101982.63;4995106;28;20050;-59
2022/05/28 01:58:15;;;;;;;14.57;2.55;;;;;;;10.37;100.00;101982.63;4992929;28;20043;-59
2022/05/28 02:00:43;;;;;;;14.57;3.10;;;;;;;10.34;100.00;101984.53;4994953;28;20117;-59
2022/05/28 02:03:13;;;;;;;12.30;2.20;;;;;;;10.28;100.00;101981.25;4994652;28;20050;-59
2022/05/28 02:05:41;;;;;;;11.73;2.72;;;;;;;10.38;100.00;101986.13;4992353;28;20410;-56
2022/05/28 02:08:09;;;;;;;12.68;2.90;;;;;;;10.34;100.00;101988.00;4991640;28;20046;-56
2022/05/28 02:10:42;;;;;;;12.02;2.63;;;;;;;10.31;100.00;101991.63;4993428;28;20050;-56
2022/05/28 02:13:18;;;;;;;11.02;3.20;;;;;;;10.28;100.00;101997.03;4993721;28;20062;-57
2022/05/28 02:15:52;;;;;;;8.52;2.63;;;;;;;10.30;100.00;102000.41;4993346;28;20049;-56
2022/05/28 02:18:29;;;;;;;13.50;2.90;;;;;;;10.34;100.00;101997.66;4990481;28;20167;-57
2022/05/28 02:21:03;;;;;;;11.60;3.00;;;;;;;10.35;100.00;101997.63;4990892;28;20137;-57
2022/05/28 02:23:37;;;;;;;10.73;2.85;;;;;;;10.24;100.00;102003.34;4993379;28;20058;-55
2022/05/28 02:26:11;;;;;;;13.57;3.10;;;;;;;10.23;100.00;101996.38;4992223;28;20160;-55
2022/05/28 02:28:43;;;;;;;14.27;3.38;;;;;;;10.19;100.00;102004.47;4986861;28;20105;-55
2022/05/28 02:31:15;;;;;;;13.27;2.92;;;;;;;10.24;100.00;102003.34;4989727;28;20038;-56
2022/05/28 02:33:44;;;;;;;12.40;3.00;;;;;;;10.20;100.00;101999.16;4991125;28;20050;-54
2022/05/28 02:36:14;;;;;;;12.68;3.05;;;;;;;10.21;100.00;102007.88;4989105;28;20070;-56
2022/05/28 02:38:43;;;;;;;9.35;2.63;;;;;;;10.24;100.00;102002.47;4991294;28;20065;-54
2022/05/28 02:41:12;;;;;;;13.98;2.75;;;;;;;10.20;100.00;101996.53;4992571;28;20046;-56
2022/05/28 02:43:40;;;;;;;9.70;2.30;;;;;;;10.20;100.00;101993.00;4993000;28;20046;-56
2022/05/28 02:46:09;;;;;;;10.90;2.45;;;;;;;10.17;100.00;101994.03;4993195;28;20050;-59
2022/05/28 02:48:40;;;;;;;20.10;3.40;;;;;;;10.07;100.00;101987.47;4993378;28;20046;-59
2022/05/28 02:51:10;;;;;;;10.15;2.40;;;;;;;10.11;100.00;101991.66;4993856;28;20073;-59
2022/05/28 02:53:39;;;;;;;11.43;2.80;;;;;;;10.18;100.00;101987.00;4994258;28;20482;-58
2022/05/28 02:56:09;;;;;;;12.20;2.50;;;;;;;10.15;100.00;101983.56;4985532;28;20504;-58
2022/05/28 02:58:39;;;;;;;14.38;2.30;;;;;;;10.06;100.00;101980.50;4993893;28;20042;-59
2022/05/28 03:01:18;;;;;;;10.77;2.53;;;;;;;10.06;100.00;101993.66;4993879;28;20118;-59
2022/05/28 03:03:48;;;;;;;11.82;2.50;;;;;;;10.05;100.00;101995.44;4993769;28;20054;-59
2022/05/28 03:06:17;;;;;;;15.75;2.97;;;;;;;10.02;100.00;101986.81;4990363;28;20086;-59
2022/05/28 03:08:46;;;;;;;11.18;2.70;;;;;;;10.05;100.00;102002.44;4992693;28;20109;-59
2022/05/28 03:11:14;;;;;;;12.60;2.47;;;;;;;10.02;100.00;102003.47;4993221;28;20493;-59
2022/05/28 03:13:43;;;;;;;11.48;2.58;;;;;;;10.07;100.00;102000.63;4993204;28;20056;-59
2022/05/28 03:16:11;;;;;;;15.27;3.08;;;;;;;10.09;100.00;101994.38;4993599;28;20145;-59
2022/05/28 03:18:40;;;;;;;10.77;2.53;;;;;;;10.11;100.00;101999.56;4993518;28;20375;-59
2022/05/28 03:21:10;;;;;;;15.90;3.03;;;;;;;10.05;100.00;101998.06;4992901;28;20133;-59
2022/05/28 03:23:38;;;;;;;17.10;3.15;;;;;;;10.10;100.00;101997.84;4992178;28;20037;-59
2022/05/28 03:26:13;;;;;;;11.63;2.15;;;;;;;10.03;100.00;101999.88;4992445;28;20145;-60
2022/05/28 03:28:42;;;;;;;12.80;2.47;;;;;;;10.08;100.00;102008.44;4992719;28;20486;-59
2022/05/28 03:31:10;;;;;;;14.25;2.65;;;;;;;10.06;100.00;102001.53;4992367;28;20909;-56
2022/05/28 03:33:39;;;;;;;11.68;2.10;;;;;;;10.07;100.00;101996.19;4990177;28;20112;-55
2022/05/28 03:36:07;;;;;;;18.80;3.15;;;;;;;10.07;100.00;101997.97;4991360;28;20528;-55
2022/05/28 03:38:37;;;;;;;10.68;2.00;;;;;;;10.04;100.00;102006.84;4991547;28;20059;-55
2022/05/28 03:41:05;;;;;;;11.93;2.40;;;;;;;10.03;100.00;102004.31;4987302;28;20054;-53
2022/05/28 03:43:34;;;;;;;9.68;2.00;;;;;;;10.05;100.00;102012.94;4992072;28;20085;-55
2022/05/28 03:46:03;;;;;;;9.27;2.90;;;;;;;10.04;100.00;102012.13;4991698;28;20042;-55
2022/05/28 03:48:33;;;;;;;10.68;2.33;;;;;;;10.12;100.00;102014.41;4991969;28;20046;-55
2022/05/28 03:51:01;;;;;;;10.95;2.05;;;;;;;10.08;100.00;102018.94;4991398;28;20062;-53
2022/05/28 03:53:29;;;;;;;11.23;2.55;;;;;;;10.06;100.00;102018.16;4991813;28;20386;-54
2022/05/28 03:55:59;;;;;;;10.20;2.20;;;;;;;10.03;100.00;102012.19;4990740;28;20138;-54
2022/05/28 03:58:27;;;;;;;9.15;2.20;;;;;;;10.03;100.00;102013.03;4991656;28;20053;-55
2022/05/28 04:00:55;;;;;;;15.35;2.53;;;;;;;9.98;100.00;102017.66;4990831;28;20538;-51
2022/05/28 04:03:23;;;;;;;14.48;2.28;;;;;;;10.02;100.00;102019.22;4991078;28;20437;-55
2022/05/28 04:05:51;;;;;;;14.10;2.20;;;;;;;10.00;100.00;102017.59;4988008;28;20134;-54
2022/05/28 04:08:19;;;;;;;12.05;2.60;;;;;;;10.01;100.00;102022.78;4988681;28;20449;-52
2022/05/28 04:10:47;;;;;;;7.43;1.70;;;;;;;9.97;100.00;102018.56;4990145;28;20105;-54
2022/05/28 04:13:17;;;;;;;10.48;1.98;;;;;;;10.04;100.00;102029.66;4986079;28;20042;-54
2022/05/28 04:15:46;;;;;;;10.40;2.20;;;;;;;10.08;100.00;102024.19;4987557;28;20054;-54
2022/05/28 04:18:14;;;;;;;9.80;2.00;;;;;;;10.05;100.00;102031.34;4991574;28;20069;-54
2022/05/28 04:20:42;;;;;;;8.10;1.40;;;;;;;10.11;100.00;102033.72;4991111;28;20058;-53
2022/05/28 04:23:10;;;;;;;11.80;2.33;;;;;;;10.12;100.00;102033.66;4991128;28;20493;-55
2022/05/28 04:25:38;;;;;;;6.82;1.70;;;;;;;10.15;100.00;102037.94;4991167;28;20057;-55
2022/05/28 04:28:06;;;;;;;6.40;1.70;;;;;;;10.15;100.00;102033.50;4991167;28;20105;-55
2022/05/28 04:30:35;;;;;;;8.85;1.77;;;;;;;10.14;100.00;102038.84;4990786;28;20068;-54
2022/05/28 04:33:03;;;;;;;8.38;1.35;;;;;;;10.17;100.00;102038.72;4990315;28;20057;-53
2022/05/28 04:35:31;;;;;;;13.52;2.28;;;;;;;10.22;100.00;102041.13;4986288;28;20038;-52
2022/05/28 04:37:59;;;;;;;7.25;1.55;;;;;;;10.23;100.00;102040.22;4988410;28;20086;-55
2022/05/28 04:40:28;;;;;;;9.85;1.77;;;;;;;10.26;100.00;102047.97;4991136;28;20528;-54
2022/05/28 04:42:56;;;;;;;9.13;1.80;;;;;;;10.26;100.00;102046.19;4990891;28;20042;-54
2022/05/28 04:45:24;;;;;;;9.35;1.45;;;;;;;10.29;100.00;102043.44;4986349;28;20398;-55
2022/05/28 04:47:53;;;;;;;11.25;1.85;;;;;;;10.35;100.00;102042.34;4988207;28;20431;-55
2022/05/28 04:50:22;;;;;;;8.18;1.50;;;;;;;10.37;100.00;102047.53;4991264;28;20061;-53
2022/05/28 04:52:50;;;;;;;8.70;1.63;;;;;;;10.39;100.00;102049.16;4990389;28;20556;-60
2022/05/28 04:55:18;;;;;;;7.93;1.77;;;;;;;10.42;100.00;102050.81;4991051;28;20684;-60
2022/05/28 04:57:48;;;;;;;9.82;1.75;;;;;;;10.47;100.00;102054.06;4992409;28;20541;-60
2022/05/28 05:00:19;;;;;;;11.82;1.73;;;;;;;10.57;100.00;102054.50;4987514;28;20046;-54
2022/05/28 05:02:47;;;;;;;10.60;1.48;;;;;;;10.65;100.00;102055.84;4988047;28;20058;-54
2022/05/28 05:05:16;;;;;;;9.02;1.20;;;;;;;10.78;99.78;102047.38;4990775;28;20141;-54
2022/05/28 05:07:44;;;;;;;9.52;1.38;;;;;;;10.77;99.67;102051.81;4990416;28;20058;-53
2022/05/28 05:10:12;;;;;;;9.13;1.27;;;;;;;10.79;98.76;102063.09;4990546;28;20501;-54
2022/05/28 05:12:40;;;;;;;9.88;1.77;;;;;;;10.91;97.61;102055.56;4993928;28;20470;-53
2022/05/28 05:15:12;;;;;;;11.38;1.65;;;;;;;10.97;96.93;102056.09;4993439;28;20387;-55
2022/05/28 05:17:40;;;;;;;6.60;1.20;;;;;;;11.06;97.99;102059.25;4991571;28;20215;-53
2022/05/28 05:20:11;;;;;;;10.52;1.45;;;;;;;11.10;96.44;102055.56;4992661;28;20460;-55
2022/05/28 05:22:41;;;;;;;9.70;1.35;;;;;;;11.18;96.60;102063.06;4992863;28;20050;-56
2022/05/28 05:25:10;;;;;;;10.23;1.40;;;;;;;11.29;95.76;102056.34;4992167;28;20059;-54
2022/05/28 05:27:38;;;;;;;7.65;1.35;;;;;;;11.37;94.56;102055.13;4993822;28;20097;-55
2022/05/28 05:30:07;;;;;;;10.27;2.20;;;;;;;11.39;93.75;102055.91;4993392;28;20540;-55
2022/05/28 05:32:36;;;;;;;6.85;1.02;;;;;;;11.47;94.40;102062.50;4993764;28;20193;-56
2022/05/28 05:35:05;;;;;;;11.45;1.35;;;;;;;11.57;93.42;102062.88;4994061;28;20070;-55
2022/05/28 05:37:33;;;;;;;6.82;1.33;;;;;;;11.68;91.93;102067.59;4989888;28;20093;-55
2022/05/28 05:40:03;;;;;;;10.23;1.98;;;;;;;11.71;91.93;102069.25;4990679;28;20112;-53
2022/05/28 05:42:31;;;;;;;11.52;1.30;;;;;;;11.76;90.29;102068.06;4993537;28;20101;-54
2022/05/28 05:44:59;;;;;;;9.65;1.30;;;;;;;11.82;89.35;102072.19;4991451;28;20457;-55
2022/05/28 05:47:28;;;;;;;9.20;1.15;;;;;;;11.95;87.68;102067.19;4993563;28;20085;-55
2022/05/28 05:49:56;;;;;;;10.10;1.30;;;;;;;12.02;88.43;102073.00;4993732;28;20711;-55
2022/05/28 05:52:24;;;;;;;8.93;1.27;;;;;;;12.11;88.26;102069.88;4991322;28;20100;-56
2022/05/28 05:54:52;;;;;;;7.60;1.30;;;;;;;12.22;87.94;102072.78;4993914;28;20065;-54
2022/05/28 05:57:21;;;;;;;7.68;1.20;;;;;;;12.34;87.73;102073.94;4993453;28;20053;-55
2022/05/28 05:59:50;;;;;;;7.13;1.25;;;;;;;12.37;83.68;102070.28;4992646;28;20050;-55
2022/05/28 06:02:18;;;;;;;9.55;1.20;;;;;;;12.33;81.54;102065.16;4993424;28;20050;-54
2022/05/28 06:04:46;;;;;;;8.95;1.75;;;;;;;12.40;82.14;102075.41;4993721;28;20104;-54
2022/05/28 06:07:14;;;;;;;11.05;1.52;;;;;;;12.54;82.58;102083.41;4990860;28;20048;-55
2022/05/28 06:09:42;;;;;;;8.57;1.35;;;;;;;12.47;81.19;102077.59;4988394;28;20481;-55
2022/05/28 06:12:10;;;;;;;5.97;1.00;;;;;;;12.61;82.00;102076.00;4990693;28;20908;-53
2022/05/28 06:14:40;;;;;;;8.52;1.15;;;;;;;12.70;80.33;102086.09;4992847;28;20082;-54
2022/05/28 06:17:08;;;;;;;5.57;1.30;;;;;;;12.81;77.84;102082.84;4975425;28;20051;-51
2022/05/28 06:19:37;;;;;;;8.07;1.20;;;;;;;12.84;76.55;102091.47;4975175;28;20486;-59
2022/05/28 06:22:06;;;;;;;5.43;1.20;;;;;;;12.95;78.17;102087.38;4974222;28;20443;-58
2022/05/28 06:24:34;;;;;;;6.88;1.13;;;;;;;12.97;75.24;102078.44;4982753;28;20477;-52
2022/05/28 06:27:02;;;;;;;6.07;1.35;;;;;;;13.15;75.38;102086.25;4990375;28;20081;-53
2022/05/28 06:29:31;;;;;;;11.95;1.70;;;;;;;13.32;73.16;102086.16;4974701;28;20498;-52
2022/05/28 06:32:00;;;;;;;9.85;1.25;;;;;;;13.42;73.91;102088.31;4975107;28;20046;-53
2022/05/28 06:34:34;;;;;;;10.63;1.63;;;;;;;13.60;73.88;102084.59;4974719;28;20053;-55
2022/05/28 06:37:03;;;;;;;6.30;1.45;;;;;;;13.84;72.00;102084.09;4974763;28;20062;-55
2022/05/28 06:39:31;;;;;;;6.53;0.90;;;;;;;13.98;69.10;102080.63;4974510;28;20055;-55
2022/05/28 06:41:59;;;;;;;7.43;1.40;;;;;;;13.83;67.50;102085.03;4971631;28;20113;-55
2022/05/28 06:44:27;;;;;;;7.55;1.27;;;;;;;13.84;67.18;102078.81;4970081;28;20050;-54
2022/05/28 06:46:55;;;;;;;7.32;1.20;;;;;;;13.82;66.11;102085.97;4974699;28;20181;-55
2022/05/28 06:49:25;;;;;;;10.13;1.27;;;;;;;14.05;66.88;102083.75;4974655;28;20057;-55
2022/05/28 06:51:53;;;;;;;6.68;1.30;;;;;;;14.07;63.70;102093.31;4974249;28;20130;-52
2022/05/28 06:54:21;;;;;;;8.73;1.08;;;;;;;13.97;62.85;102090.34;4974214;28;20187;-55
2022/05/28 06:56:49;;;;;;;4.97;1.10;;;;;;;13.88;62.95;102096.19;4973912;28;20129;-54
2022/05/28 06:59:17;;;;;;;6.38;1.20;;;;;;;13.97;62.02;102098.28;4968859;28;20534;-56
2022/05/28 07:01:45;;;;;;;6.90;1.33;;;;;;;13.78;62.00;102098.50;4971830;28;20125;-59
2022/05/28 07:04:13;;;;;;;6.72;1.30;;;;;;;13.99;61.48;102091.13;4972384;28;20198;-59
2022/05/28 07:06:42;;;;;;;7.03;1.40;;;;;;;14.03;61.60;102095.28;4973662;28;20518;-59
2022/05/28 07:09:10;;;;;;;5.55;1.17;;;;;;;14.28;61.07;102095.59;4971166;28;20501;-53
2022/05/28 07:11:38;;;;;;;10.77;1.40;;;;;;;14.31;60.68;102087.47;4970888;28;20046;-59
2022/05/28 07:14:06;;;;;;;7.22;1.40;;;;;;;14.72;63.52;102089.34;4971917;28;20078;-59
2022/05/28 07:16:34;;;;;;;6.03;1.40;;;;;;;14.79;58.92;102097.75;4971175;28;20055;-59
2022/05/28 07:19:03;;;;;;;5.93;1.30;;;;;;;15.01;60.32;102086.63;4972674;28;20055;-59
2022/05/28 07:21:31;;;;;;;16.38;1.95;;;;;;;15.07;59.33;102094.22;4973940;28;20058;-56
2022/05/28 07:24:00;;;;;;;7.22;1.65;;;;;;;14.92;60.85;102100.50;4973879;28;20126;-60
2022/05/28 07:26:28;;;;;;;8.65;1.35;;;;;;;15.01;60.71;102095.47;4974157;28;20446;-60
2022/05/28 07:28:56;;;;;;;8.60;1.17;;;;;;;14.85;60.56;102105.34;4970371;28;20057;-53
2022/05/28 07:31:24;;;;;;;10.40;1.52;;;;;;;14.81;59.89;102096.72;4970890;28;20050;-54
2022/05/28 07:33:52;;;;;;;7.20;1.55;;;;;;;14.69;60.00;102097.50;4972297;28;20556;-51
2022/05/28 07:36:22;;;;;;;7.88;1.48;;;;;;;14.44;60.74;102100.78;4973587;28;20047;-60
2022/05/28 07:38:52;;;;;;;7.53;1.30;;;;;;;14.67;60.50;102097.59;4981549;28;20054;-59
2022/05/28 07:41:24;;;;;;;10.43;1.85;;;;;;;14.67;60.61;102112.63;4991317;28;20069;-60
2022/05/28 07:43:53;;;;;;;6.50;1.15;;;;;;;14.74;60.53;102102.50;4990891;28;20398;-60
2022/05/28 07:46:24;;;;;;;5.07;1.10;;;;;;;14.86;61.13;102101.72;4991758;28;20076;-59
2022/05/28 07:48:54;;;;;;;7.53;1.45;;;;;;;14.83;59.96;102104.56;4989945;28;20053;-60
2022/05/28 07:51:23;;;;;;;7.45;1.95;;;;;;;15.22;61.57;102105.63;4982899;28;20042;-60
2022/05/28 07:53:51;;;;;;;10.18;1.40;;;;;;;15.33;59.45;102103.09;4988056;28;20076;-60
2022/05/28 07:56:19;;;;;;;9.02;2.00;;;;;;;15.52;57.42;102107.22;4991489;28;20057;-60
2022/05/28 07:58:50;;;;;;;12.35;1.80;;;;;;;15.33;57.76;102099.63;4990461;28;20046;-60
2022/05/28 08:01:20;;;;;;;5.78;1.08;;;;;;;15.41;58.44;102101.78;4984298;28;20121;-55
2022/05/28 08:03:48;;;;;;;7.35;1.10;;;;;;;15.20;57.93;102099.56;4987869;28;20078;-54
2022/05/28 08:06:17;;;;;;;6.15;1.23;;;;;;;15.19;58.14;102098.72;4988024;28;20046;-55
2022/05/28 08:08:46;;;;;;;11.57;2.25;;;;;;;14.98;57.94;102110.69;4989841;28;20096;-54
2022/05/28 08:11:14;;;;;;;10.70;1.33;;;;;;;15.13;57.59;102100.91;4990038;28;20117;-54
2022/05/28 08:13:42;;;;;;;11.63;1.95;;;;;;;15.16;58.46;102100.69;4990280;28;20046;-54
2022/05/28 08:16:12;;;;;;;7.88;1.70;;;;;;;15.32;57.98;102103.22;4989662;28;20116;-56
2022/05/28 08:18:41;;;;;;;9.85;1.30;;;;;;;15.45;58.69;102108.56;4990182;28;20137;-56
2022/05/28 08:23:56;;;;;;;10.93;1.40;;;;;;;15.54;58.12;102105.28;4989894;28;20050;-54
2022/05/28 08:26:24;;;;;;;13.32;1.80;;;;;;;15.62;58.57;102099.50;4977257;28;20042;-60
2022/05/28 08:28:54;;;;;;;7.60;1.90;;;;;;;15.79;58.30;102095.69;4985050;28;20046;-53
2022/05/28 08:31:24;;;;;;;8.07;1.50;;;;;;;16.17;57.08;102087.81;4988148;28;20141;-60
2022/05/28 08:33:53;;;;;;;10.82;1.70;;;;;;;16.57;57.66;102092.13;4990028;28;20527;-60
2022/05/28 08:36:21;;;;;;;9.55;1.60;;;;;;;16.69;55.42;102096.56;4985292;28;20093;-59
2022/05/28 08:38:49;;;;;;;8.10;1.60;;;;;;;16.73;54.71;102103.34;4981680;28;20062;-56
2022/05/28 08:41:20;;;;;;;13.82;1.70;;;;;;;16.71;54.32;102099.97;4989091;28;20112;-60
2022/05/28 08:43:57;;;;;;;11.88;1.83;;;;;;;16.71;55.02;102099.97;4989919;28;20051;-59
2022/05/28 08:46:29;;;;;;;9.05;1.50;;;;;;;16.52;54.31;102096.91;4989113;28;20047;-55
2022/05/28 08:48:58;;;;;;;8.98;1.60;;;;;;;16.33;54.52;102100.88;4990201;28;20042;-60
2022/05/28 08:51:46;;;;;;;7.30;1.50;;;;;;;16.59;53.89;102107.94;4993188;28;20125;-59
2022/05/28 08:54:24;;;;;;;8.57;1.90;;;;;;;16.77;47.70;102097.81;4991955;28;20374;-54
2022/05/28 08:56:57;;;;;;;7.65;1.20;;;;;;;17.18;48.73;102091.34;4989852;28;20493;-59
2022/05/28 08:59:30;;;;;;;7.32;1.20;;;;;;;17.40;46.15;102080.81;4992862;28;20383;-56
2022/05/28 09:02:07;;;;;;;10.15;1.40;;;;;;;17.23;48.97;102089.19;4992564;28;20050;-59
2022/05/28 09:04:40;;;;;;;8.57;1.48;;;;;;;17.52;49.24;102083.50;4982159;28;20054;-59
2022/05/28 09:07:13;;;;;;;9.48;1.33;;;;;;;17.26;47.52;102083.66;4990525;28;20061;-59
2022/05/28 09:09:47;;;;;;;5.97;1.60;;;;;;;16.85;46.51;102103.44;4989923;28;20161;-54
2022/05/28 09:12:20;;;;;;;10.27;1.70;;;;;;;16.62;47.16;102097.09;4992786;28;20074;-53
2022/05/28 09:14:48;;;;;;;6.80;1.20;;;;;;;16.76;47.44;102098.78;4993775;28;20050;-60
2022/05/28 09:17:26;;;;;;;5.57;1.33;;;;;;;16.69;47.35;102093.91;4993504;28;20101;-59
2022/05/28 09:19:58;;;;;;;5.78;1.42;;;;;;;17.25;47.16;102087.28;4993694;28;20133;-55
2022/05/28 09:22:26;;;;;;;7.65;1.63;;;;;;;17.56;45.67;102082.31;4993237;28;20054;-59
2022/05/28 09:24:54;;;;;;;4.53;1.27;;;;;;;17.71;43.42;102089.16;4992479;28;20042;-54
2022/05/28 09:27:31;;;;;;;7.43;1.48;;;;;;;17.88;44.54;102081.69;4985031;28;20482;-56
2022/05/28 09:30:16;;;;;;;10.45;1.48;;;;;;;17.90;43.25;102080.59;4986172;28;20085;-56
2022/05/28 09:33:03;;;;;;;6.68;1.30;;;;;;;17.55;41.94;102083.28;4988729;28;20038;-56
2022/05/28 09:35:44;;;;;;;5.00;1.30;;;;;;;18.12;42.75;102080.78;4986303;28;20046;-55
2022/05/28 09:38:20;;;;;;;3.80;1.00;;;;;;;18.58;38.55;102080.69;4989386;28;20046;-54
2022/05/28 09:40:52;;;;;;;4.95;1.05;;;;;;;19.02;37.98;102078.06;4991997;28;20488;-56
2022/05/28 09:43:40;;;;;;;4.22;1.08;;;;;;;18.97;38.35;102082.09;4992300;28;20046;-55
2022/05/28 09:46:18;;;;;;;7.78;1.58;;;;;;;18.91;39.26;102084.28;4992070;28;20030;-53
2022/05/28 09:48:58;;;;;;;6.95;1.20;;;;;;;18.61;41.38;102084.03;4987364;28;20050;-57
2022/05/28 09:51:29;;;;;;;8.38;1.65;;;;;;;18.25;42.86;102084.19;4990035;28;20050;-55
2022/05/28 09:54:17;;;;;;;7.45;1.42;;;;;;;18.43;42.28;102076.53;4993019;28;20039;-56
2022/05/28 09:56:51;;;;;;;7.97;1.48;;;;;;;18.71;42.61;102083.19;4990080;28;20046;-56
2022/05/28 09:59:28;;;;;;;6.15;1.70;;;;;;;18.67;40.78;102079.06;4988008;28;20069;-56
2022/05/28 10:01:59;;;;;;;6.10;1.70;;;;;;;18.74;40.02;102080.28;4991515;28;20425;-56
2022/05/28 10:04:30;;;;;;;6.75;1.13;;;;;;;19.28;39.83;102067.09;4993840;28;20054;-57
2022/05/28 10:07:02;;;;;;;5.75;1.42;;;;;;;18.98;37.34;102057.97;4991783;28;20544;-57
2022/05/28 10:09:32;;;;;;;9.25;1.40;;;;;;;18.88;37.71;102075.69;4973909;28;20042;-56
2022/05/28 10:12:02;;;;;;;7.85;1.25;;;;;;;18.55;37.50;102056.09;4989127;28;20053;-56
2022/05/28 10:14:31;;;;;;;6.07;1.30;;;;;;;18.56;36.31;102068.44;4992702;28;20042;-54
2022/05/28 10:17:02;;;;;;;9.10;1.80;;;;;;;19.13;37.99;102063.88;4992964;28;20049;-57
2022/05/28 10:19:35;;;;;;;8.82;1.80;;;;;;;19.51;38.50;102050.94;4993098;28;20041;-56
2022/05/28 10:22:07;;;;;;;8.00;1.60;;;;;;;19.44;37.89;102055.97;4993386;28;20124;-57
2022/05/28 10:24:43;;;;;;;7.10;1.50;;;;;;;19.19;38.97;102059.84;4989268;28;20051;-55
2022/05/28 10:27:32;;;;;;;9.40;1.83;;;;;;;18.97;40.45;102063.44;4992604;28;20482;-56
2022/05/28 10:30:03;;;;;;;8.05;1.55;;;;;;;18.73;40.41;102073.28;4976423;28;20066;-55
2022/05/28 10:32:36;;;;;;;6.30;1.40;;;;;;;19.04;39.71;102068.13;4993094;28;20046;-56
2022/05/28 10:35:16;;;;;;;6.53;1.40;;;;;;;19.58;38.22;102065.50;4990541;28;20046;-55
2022/05/28 10:37:44;;;;;;;5.78;1.48;;;;;;;19.82;35.38;102062.56;4988100;28;20085;-56
2022/05/28 10:40:19;;;;;;;7.50;1.27;;;;;;;19.14;35.59;102062.91;4992515;28;20100;-57
2022/05/28 10:42:48;;;;;;;6.75;1.50;;;;;;;18.72;36.11;102063.56;4992154;28;20078;-54
2022/05/28 10:45:18;;;;;;;6.13;1.13;;;;;;;18.45;37.63;102069.28;4993554;28;20121;-55
2022/05/28 10:48:03;;;;;;;6.82;1.23;;;;;;;19.21;38.15;102061.41;4993944;28;20054;-60
2022/05/28 10:50:43;;;;;;;9.20;1.50;;;;;;;19.84;36.49;102057.97;4994034;28;20441;-60
2022/05/28 10:53:23;;;;;;;9.50;1.70;;;;;;;19.48;36.45;102048.56;4993463;28;20042;-60
2022/05/28 10:56:17;;;;;;;6.82;1.20;;;;;;;19.07;36.83;102059.91;4993049;28;20053;-61
2022/05/28 10:58:58;;;;;;;8.32;1.50;;;;;;;19.07;37.96;102056.34;4993050;28;20134;-60
2022/05/28 11:01:40;;;;;;;7.63;1.65;;;;;;;18.98;38.06;102047.31;4992914;28;20371;-60
2022/05/28 11:04:41;;;;;;;8.47;1.30;;;;;;;19.05;37.18;102053.81;4992779;28;20051;-60
2022/05/28 11:07:26;;;;;;;9.68;2.08;;;;;;;19.16;35.93;102055.59;4979797;28;20093;-60
2022/05/28 11:10:15;;;;;;;6.70;1.17;;;;;;;19.05;37.09;102051.16;4992511;28;20112;-60
2022/05/28 11:12:58;;;;;;;6.68;1.83;;;;;;;19.01;38.47;102063.03;4993213;28;20473;-60
2022/05/28 11:15:41;;;;;;;6.75;1.38;;;;;;;18.99;39.01;102053.47;4993290;28;20061;-60
2022/05/28 11:18:24;;;;;;;9.88;1.75;;;;;;;19.58;38.46;102039.66;4993370;28;20042;-61
2022/05/28 11:21:04;;;;;;;8.55;1.40;;;;;;;19.32;36.57;102049.84;4977802;28;20053;-62
2022/05/28 11:24:02;;;;;;;8.77;1.85;;;;;;;19.31;36.40;102053.50;4992891;28;20050;-59
2022/05/28 11:26:38;;;;;;;6.05;1.40;;;;;;;18.80;36.88;102054.97;4993042;28;20126;-61
2022/05/28 11:29:38;;;;;;;8.20;1.52;;;;;;;19.29;35.54;102049.25;4993089;28;20485;-60
2022/05/28 11:32:12;;;;;;;5.60;1.45;;;;;;;18.91;35.71;102046.97;4993123;28;20121;-60
2022/05/28 11:34:52;;;;;;;5.85;1.40;;;;;;;19.14;36.14;102046.03;4992960;28;20450;-60
2022/05/28 11:37:26;;;;;;;8.23;1.60;;;;;;;19.68;36.03;102041.53;4992971;28;20044;-60
2022/05/28 11:40:00;;;;;;;6.93;1.33;;;;;;;20.27;36.72;102040.03;4992572;28;20387;-62
2022/05/28 11:42:38;;;;;;;7.28;1.77;;;;;;;20.32;34.63;102032.47;4992151;28;20530;-61